sensor_id;sensor_type;location;lat;lon;timestamp;temperature;humidity
13369;DHT22;6753;52.520;13.450;2023-04-12T00:00:01;18.60;49.30
13369;DHT22;6753;52.520;13.450;2023-04-12T00:00:14;18.60;49.30
13369;DHT22;6753;52.520;13.450;2023-04-12T00:00:27;18.60;49.30
13369;DHT22;6753;52.520;13.450;2023-04-12T00:00:37;20.20;51.60
13369;DHT22;6753;52.520;13.450;2023-04-12T00:00:48;18.60;49.30
13369;DHT22;6753;52.520;13.450;2023-04-12T00:01:02;18.60;49.40
13369;DHT22;6753;52.520;13.450;2023-04-12T00:01:15;18.60;49.30
13369;DHT22;6753;52.520;13.450;2023-04-12T00:01:26;20.50;51.80
13369;DHT22;6753;52.520;13.450;2023-04-12T00:01:38;18.60;48.90
13369;DHT22;6753;52.520;13.450;2023-04-12T00:01:51;18.60;48.90
13369;DHT22;6753;52.520;13.450;2023-04-12T00:02:03;18.70;48.90
13369;DHT22;6753;52.520;13.450;2023-04-12T00:02:14;18.60;48.80
13369;DHT22;6753;52.520;13.450;2023-04-12T00:02:24;18.70;49.00
13369;DHT22;6753;52.520;13.450;2023-04-12T00:02:37;18.70;49.00
13369;DHT22;6753;52.520;13.450;2023-04-12T00:02:48;18.70;48.90
13369;DHT22;6753;52.520;13.450;2023-04-12T00:03:05;18.60;48.70
13369;DHT22;6753;52.520;13.450;2023-04-12T00:03:17;18.70;49.10
13369;DHT22;6753;52.520;13.450;2023-04-12T00:03:29;18.70;49.10
13369;DHT22;6753;52.520;13.450;2023-04-12T00:03:44;18.70;49.30
13369;DHT22;6753;52.520;13.450;2023-04-12T00:03:59;18.60;49.00
13369;DHT22;6753;52.520;13.450;2023-04-12T00:04:12;18.70;49.00
13369;DHT22;6753;52.520;13.450;2023-04-12T00:04:25;18.70;48.80
13369;DHT22;6753;52.520;13.450;2023-04-12T00:04:37;18.60;48.60
13369;DHT22;6753;52.520;13.450;2023-04-12T00:04:48;18.60;48.50
13369;DHT22;6753;52.520;13.450;2023-04-12T00:05:05;18.60;48.40
13369;DHT22;6753;52.520;13.450;2023-04-12T00:05:19;18.60;48.40
13369;DHT22;6753;52.520;13.450;2023-04-12T00:05:32;18.70;49.20
13369;DHT22;6753;52.520;13.450;2023-04-12T00:05:43;18.70;49.50
13369;DHT22;6753;52.520;13.450;2023-04-12T00:05:56;18.60;49.80
13369;DHT22;6753;52.520;13.450;2023-04-12T00:06:09;18.60;49.90
13369;DHT22;6753;52.520;13.450;2023-04-12T00:06:21;20.30;52.50
13369;DHT22;6753;52.520;13.450;2023-04-12T00:06:37;18.60;50.10
13369;DHT22;6753;52.520;13.450;2023-04-12T00:06:47;18.70;50.10
13369;DHT22;6753;52.520;13.450;2023-04-12T00:06:58;18.90;50.30
13369;DHT22;6753;52.520;13.450;2023-04-12T00:07:10;18.60;49.90
13369;DHT22;6753;52.520;13.450;2023-04-12T00:07:22;18.70;49.90
13369;DHT22;6753;52.520;13.450;2023-04-12T00:07:33;18.70;50.00
13369;DHT22;6753;52.520;13.450;2023-04-12T00:07:43;18.60;49.80
13369;DHT22;6753;52.520;13.450;2023-04-12T00:07:56;18.70;50.20
13369;DHT22;6753;52.520;13.450;2023-04-12T00:08:10;18.70;50.20
13369;DHT22;6753;52.520;13.450;2023-04-12T00:08:21;18.60;50.10
13369;DHT22;6753;52.520;13.450;2023-04-12T00:08:35;18.70;50.30
13369;DHT22;6753;52.520;13.450;2023-04-12T00:08:46;18.70;50.00
13369;DHT22;6753;52.520;13.450;2023-04-12T00:08:57;18.70;49.90
13369;DHT22;6753;52.520;13.450;2023-04-12T00:09:08;18.60;49.70
13369;DHT22;6753;52.520;13.450;2023-04-12T00:09:18;18.70;49.80
13369;DHT22;6753;52.520;13.450;2023-04-12T00:09:29;18.70;49.90
13369;DHT22;6753;52.520;13.450;2023-04-12T00:09:41;18.70;49.90
13369;DHT22;6753;52.520;13.450;2023-04-12T00:09:52;18.70;49.90
13369;DHT22;6753;52.520;13.450;2023-04-12T00:10:04;18.70;49.80
13369;DHT22;6753;52.520;13.450;2023-04-12T00:10:15;18.70;49.80
13369;DHT22;6753;52.520;13.450;2023-04-12T00:10:26;18.60;49.70
13369;DHT22;6753;52.520;13.450;2023-04-12T00:10:37;18.60;49.70
13369;DHT22;6753;52.520;13.450;2023-04-12T00:10:48;18.70;49.80
13369;DHT22;6753;52.520;13.450;2023-04-12T00:10:59;18.70;49.80
13369;DHT22;6753;52.520;13.450;2023-04-12T00:11:10;18.70;49.90
13369;DHT22;6753;52.520;13.450;2023-04-12T00:11:21;19.10;50.50
13369;DHT22;6753;52.520;13.450;2023-04-12T00:11:32;18.70;50.00
13369;DHT22;6753;52.520;13.450;2023-04-12T00:11:43;19.70;51.50
13369;DHT22;6753;52.520;13.450;2023-04-12T00:11:53;18.70;50.10
13369;DHT22;6753;52.520;13.450;2023-04-12T00:12:05;18.70;50.10
13369;DHT22;6753;52.520;13.450;2023-04-12T00:12:16;18.70;50.10
13369;DHT22;6753;52.520;13.450;2023-04-12T00:12:28;18.70;49.90
13369;DHT22;6753;52.520;13.450;2023-04-12T00:12:39;18.70;49.80
13369;DHT22;6753;52.520;13.450;2023-04-12T00:12:51;18.70;49.70
13369;DHT22;6753;52.520;13.450;2023-04-12T00:13:02;18.70;49.60
13369;DHT22;6753;52.520;13.450;2023-04-12T00:13:12;18.70;49.50
13369;DHT22;6753;52.520;13.450;2023-04-12T00:13:23;18.70;49.60
13369;DHT22;6753;52.520;13.450;2023-04-12T00:13:34;18.70;49.60
13369;DHT22;6753;52.520;13.450;2023-04-12T00:13:45;18.70;49.90
13369;DHT22;6753;52.520;13.450;2023-04-12T00:13:55;18.70;49.90
13369;DHT22;6753;52.520;13.450;2023-04-12T00:14:07;18.70;50.10
13369;DHT22;6753;52.520;13.450;2023-04-12T00:14:18;18.70;49.90
13369;DHT22;6753;52.520;13.450;2023-04-12T00:14:29;18.70;49.70
13369;DHT22;6753;52.520;13.450;2023-04-12T00:14:39;18.70;49.70
13369;DHT22;6753;52.520;13.450;2023-04-12T00:14:50;18.70;49.60
13369;DHT22;6753;52.520;13.450;2023-04-12T00:15:01;18.70;49.60
13369;DHT22;6753;52.520;13.450;2023-04-12T00:15:12;18.70;49.80
13369;DHT22;6753;52.520;13.450;2023-04-12T00:15:24;18.70;49.80
13369;DHT22;6753;52.520;13.450;2023-04-12T00:15:34;18.70;49.80
13369;DHT22;6753;52.520;13.450;2023-04-12T00:15:45;20.90;52.90
13369;DHT22;6753;52.520;13.450;2023-04-12T00:15:56;18.70;49.50
13369;DHT22;6753;52.520;13.450;2023-04-12T00:16:08;18.70;49.50
13369;DHT22;6753;52.520;13.450;2023-04-12T00:16:19;18.70;49.60
13369;DHT22;6753;52.520;13.450;2023-04-12T00:16:30;18.70;49.50
13369;DHT22;6753;52.520;13.450;2023-04-12T00:16:40;18.70;49.50
13369;DHT22;6753;52.520;13.450;2023-04-12T00:16:52;20.80;52.50
13369;DHT22;6753;52.520;13.450;2023-04-12T00:17:03;18.70;49.40
13369;DHT22;6753;52.520;13.450;2023-04-12T00:17:14;18.70;49.50
13369;DHT22;6753;52.520;13.450;2023-04-12T00:17:24;18.70;49.60
13369;DHT22;6753;52.520;13.450;2023-04-12T00:17:35;18.60;49.40
13369;DHT22;6753;52.520;13.450;2023-04-12T00:17:46;18.70;49.70
13369;DHT22;6753;52.520;13.450;2023-04-12T00:17:57;18.70;49.90
13369;DHT22;6753;52.520;13.450;2023-04-12T00:18:07;18.70;49.90
13369;DHT22;6753;52.520;13.450;2023-04-12T00:18:18;18.70;50.00
13369;DHT22;6753;52.520;13.450;2023-04-12T00:18:31;18.70;50.70
13369;DHT22;6753;52.520;13.450;2023-04-12T00:18:43;18.70;50.20
13369;DHT22;6753;52.520;13.450;2023-04-12T00:18:55;18.70;50.00
13369;DHT22;6753;52.520;13.450;2023-04-12T00:19:06;18.70;49.80
13369;DHT22;6753;52.520;13.450;2023-04-12T00:19:18;18.70;49.80
13369;DHT22;6753;52.520;13.450;2023-04-12T00:19:28;18.70;49.70
13369;DHT22;6753;52.520;13.450;2023-04-12T00:19:40;18.70;49.90
13369;DHT22;6753;52.520;13.450;2023-04-12T00:19:51;18.70;49.90
13369;DHT22;6753;52.520;13.450;2023-04-12T00:20:03;18.70;49.90
13369;DHT22;6753;52.520;13.450;2023-04-12T00:20:15;18.70;49.90
13369;DHT22;6753;52.520;13.450;2023-04-12T00:20:26;18.70;49.80
13369;DHT22;6753;52.520;13.450;2023-04-12T00:20:36;18.70;49.70
13369;DHT22;6753;52.520;13.450;2023-04-12T00:20:48;18.60;49.60
13369;DHT22;6753;52.520;13.450;2023-04-12T00:20:58;18.70;49.80
13369;DHT22;6753;52.520;13.450;2023-04-12T00:21:10;18.70;50.10
13369;DHT22;6753;52.520;13.450;2023-04-12T00:21:22;18.70;49.90
13369;DHT22;6753;52.520;13.450;2023-04-12T00:21:33;18.70;50.00
13369;DHT22;6753;52.520;13.450;2023-04-12T00:21:44;18.60;49.80
13369;DHT22;6753;52.520;13.450;2023-04-12T00:21:55;18.70;49.90
13369;DHT22;6753;52.520;13.450;2023-04-12T00:22:07;18.70;50.00
13369;DHT22;6753;52.520;13.450;2023-04-12T00:22:18;19.10;50.80
13369;DHT22;6753;52.520;13.450;2023-04-12T00:22:29;18.70;50.00
13369;DHT22;6753;52.520;13.450;2023-04-12T00:22:41;18.70;50.10
13369;DHT22;6753;52.520;13.450;2023-04-12T00:22:51;18.70;50.20
13369;DHT22;6753;52.520;13.450;2023-04-12T00:23:03;18.70;50.20
13369;DHT22;6753;52.520;13.450;2023-04-12T00:23:14;18.70;50.20
13369;DHT22;6753;52.520;13.450;2023-04-12T00:23:26;18.70;50.30
13369;DHT22;6753;52.520;13.450;2023-04-12T00:23:37;18.70;50.10
13369;DHT22;6753;52.520;13.450;2023-04-12T00:23:49;18.70;50.10
13369;DHT22;6753;52.520;13.450;2023-04-12T00:23:59;18.70;50.20
13369;DHT22;6753;52.520;13.450;2023-04-12T00:24:11;18.70;50.30
13369;DHT22;6753;52.520;13.450;2023-04-12T00:24:21;18.70;50.20
13369;DHT22;6753;52.520;13.450;2023-04-12T00:24:32;18.70;50.10
13369;DHT22;6753;52.520;13.450;2023-04-12T00:24:43;18.70;50.10
13369;DHT22;6753;52.520;13.450;2023-04-12T00:24:53;18.70;50.10
13369;DHT22;6753;52.520;13.450;2023-04-12T00:25:05;18.70;50.20
13369;DHT22;6753;52.520;13.450;2023-04-12T00:25:17;18.70;50.40
13369;DHT22;6753;52.520;13.450;2023-04-12T00:25:27;18.70;50.40
13369;DHT22;6753;52.520;13.450;2023-04-12T00:25:38;18.70;50.70
13369;DHT22;6753;52.520;13.450;2023-04-12T00:25:49;18.70;50.90
13369;DHT22;6753;52.520;13.450;2023-04-12T00:26:00;18.70;50.90
13369;DHT22;6753;52.520;13.450;2023-04-12T00:26:11;18.70;50.90
13369;DHT22;6753;52.520;13.450;2023-04-12T00:26:21;18.70;50.70
13369;DHT22;6753;52.520;13.450;2023-04-12T00:26:32;18.70;50.40
13369;DHT22;6753;52.520;13.450;2023-04-12T00:26:43;18.70;50.40
13369;DHT22;6753;52.520;13.450;2023-04-12T00:26:55;18.70;50.40
13369;DHT22;6753;52.520;13.450;2023-04-12T00:27:06;20.10;52.50
13369;DHT22;6753;52.520;13.450;2023-04-12T00:27:16;18.70;50.40
13369;DHT22;6753;52.520;13.450;2023-04-12T00:27:27;18.70;50.50
13369;DHT22;6753;52.520;13.450;2023-04-12T00:27:38;18.70;51.10
13369;DHT22;6753;52.520;13.450;2023-04-12T00:27:49;18.70;50.60
13369;DHT22;6753;52.520;13.450;2023-04-12T00:28:00;18.70;50.70
13369;DHT22;6753;52.520;13.450;2023-04-12T00:28:11;18.70;50.80
13369;DHT22;6753;52.520;13.450;2023-04-12T00:28:22;18.70;50.80
13369;DHT22;6753;52.520;13.450;2023-04-12T00:28:33;18.70;50.80
13369;DHT22;6753;52.520;13.450;2023-04-12T00:28:44;18.70;50.70
13369;DHT22;6753;52.520;13.450;2023-04-12T00:28:54;18.70;50.80
13369;DHT22;6753;52.520;13.450;2023-04-12T00:29:05;18.70;51.00
13369;DHT22;6753;52.520;13.450;2023-04-12T00:29:16;18.70;50.90
13369;DHT22;6753;52.520;13.450;2023-04-12T00:29:27;18.70;50.90
13369;DHT22;6753;52.520;13.450;2023-04-12T00:29:38;18.80;51.10
13369;DHT22;6753;52.520;13.450;2023-04-12T00:29:49;18.70;51.40
13369;DHT22;6753;52.520;13.450;2023-04-12T00:30:00;18.80;51.50
13369;DHT22;6753;52.520;13.450;2023-04-12T00:30:11;18.70;51.60
13369;DHT22;6753;52.520;13.450;2023-04-12T00:30:22;18.70;51.80
13369;DHT22;6753;52.520;13.450;2023-04-12T00:30:33;18.70;51.80
13369;DHT22;6753;52.520;13.450;2023-04-12T00:30:44;18.70;51.70
13369;DHT22;6753;52.520;13.450;2023-04-12T00:30:57;18.70;51.60
13369;DHT22;6753;52.520;13.450;2023-04-12T00:31:08;18.70;51.40
13369;DHT22;6753;52.520;13.450;2023-04-12T00:31:20;18.70;51.30
13369;DHT22;6753;52.520;13.450;2023-04-12T00:31:31;18.70;51.30
13369;DHT22;6753;52.520;13.450;2023-04-12T00:31:42;18.70;51.40
13369;DHT22;6753;52.520;13.450;2023-04-12T00:31:52;18.70;51.50
13369;DHT22;6753;52.520;13.450;2023-04-12T00:32:04;18.70;51.80
13369;DHT22;6753;52.520;13.450;2023-04-12T00:32:15;18.70;51.70
13369;DHT22;6753;52.520;13.450;2023-04-12T00:32:26;18.70;51.70
13369;DHT22;6753;52.520;13.450;2023-04-12T00:32:36;18.70;51.50
13369;DHT22;6753;52.520;13.450;2023-04-12T00:32:48;19.70;53.10
13369;DHT22;6753;52.520;13.450;2023-04-12T00:32:59;18.70;51.70
13369;DHT22;6753;52.520;13.450;2023-04-12T00:33:09;18.70;52.30
13369;DHT22;6753;52.520;13.450;2023-04-12T00:33:20;18.70;52.50
13369;DHT22;6753;52.520;13.450;2023-04-12T00:33:32;18.70;52.40
13369;DHT22;6753;52.520;13.450;2023-04-12T00:33:44;18.70;52.00
13369;DHT22;6753;52.520;13.450;2023-04-12T00:33:55;18.70;51.90
13369;DHT22;6753;52.520;13.450;2023-04-12T00:34:06;18.70;52.10
13369;DHT22;6753;52.520;13.450;2023-04-12T00:34:16;18.70;52.00
13369;DHT22;6753;52.520;13.450;2023-04-12T00:34:28;18.70;52.00
13369;DHT22;6753;52.520;13.450;2023-04-12T00:34:39;18.70;52.10
13369;DHT22;6753;52.520;13.450;2023-04-12T00:34:50;18.70;52.10
13369;DHT22;6753;52.520;13.450;2023-04-12T00:35:04;19.90;53.90
13369;DHT22;6753;52.520;13.450;2023-04-12T00:35:15;18.70;52.20
13369;DHT22;6753;52.520;13.450;2023-04-12T00:35:25;18.70;52.20
13369;DHT22;6753;52.520;13.450;2023-04-12T00:35:36;18.70;52.20
13369;DHT22;6753;52.520;13.450;2023-04-12T00:35:48;18.80;52.40
13369;DHT22;6753;52.520;13.450;2023-04-12T00:35:58;18.80;52.40
13369;DHT22;6753;52.520;13.450;2023-04-12T00:36:09;18.70;52.20
13369;DHT22;6753;52.520;13.450;2023-04-12T00:36:20;18.80;52.30
13369;DHT22;6753;52.520;13.450;2023-04-12T00:36:31;18.80;52.20
13369;DHT22;6753;52.520;13.450;2023-04-12T00:36:42;21.20;55.60
13369;DHT22;6753;52.520;13.450;2023-04-12T00:36:53;18.80;51.90
13369;DHT22;6753;52.520;13.450;2023-04-12T00:37:04;18.70;51.90
13369;DHT22;6753;52.520;13.450;2023-04-12T00:37:15;18.80;52.10
13369;DHT22;6753;52.520;13.450;2023-04-12T00:37:26;18.70;52.30
13369;DHT22;6753;52.520;13.450;2023-04-12T00:37:37;18.80;52.40
13369;DHT22;6753;52.520;13.450;2023-04-12T00:37:48;18.70;52.10
13369;DHT22;6753;52.520;13.450;2023-04-12T00:37:59;18.80;52.10
13369;DHT22;6753;52.520;13.450;2023-04-12T00:38:12;18.80;52.10
13369;DHT22;6753;52.520;13.450;2023-04-12T00:38:25;18.80;52.20
13369;DHT22;6753;52.520;13.450;2023-04-12T00:38:35;18.70;52.10
13369;DHT22;6753;52.520;13.450;2023-04-12T00:38:46;18.70;52.10
13369;DHT22;6753;52.520;13.450;2023-04-12T00:38:57;18.80;52.10
13369;DHT22;6753;52.520;13.450;2023-04-12T00:39:08;18.80;52.30
13369;DHT22;6753;52.520;13.450;2023-04-12T00:39:19;18.80;52.40
13369;DHT22;6753;52.520;13.450;2023-04-12T00:39:30;18.80;52.40
13369;DHT22;6753;52.520;13.450;2023-04-12T00:39:40;18.80;52.30
13369;DHT22;6753;52.520;13.450;2023-04-12T00:39:51;18.80;52.10
13369;DHT22;6753;52.520;13.450;2023-04-12T00:40:04;21.60;56.20
13369;DHT22;6753;52.520;13.450;2023-04-12T00:40:16;18.80;52.10
13369;DHT22;6753;52.520;13.450;2023-04-12T00:40:27;18.80;52.20
13369;DHT22;6753;52.520;13.450;2023-04-12T00:40:40;18.80;52.00
13369;DHT22;6753;52.520;13.450;2023-04-12T00:40:51;18.80;52.20
13369;DHT22;6753;52.520;13.450;2023-04-12T00:41:02;18.80;52.20
13369;DHT22;6753;52.520;13.450;2023-04-12T00:41:13;18.80;52.70
13369;DHT22;6753;52.520;13.450;2023-04-12T00:41:25;18.80;52.20
13369;DHT22;6753;52.520;13.450;2023-04-12T00:41:37;18.80;52.00
13369;DHT22;6753;52.520;13.450;2023-04-12T00:41:48;18.80;52.00
13369;DHT22;6753;52.520;13.450;2023-04-12T00:42:02;18.80;52.10
13369;DHT22;6753;52.520;13.450;2023-04-12T00:42:13;18.80;52.20
13369;DHT22;6753;52.520;13.450;2023-04-12T00:42:24;18.80;52.30
13369;DHT22;6753;52.520;13.450;2023-04-12T00:42:35;18.80;52.40
13369;DHT22;6753;52.520;13.450;2023-04-12T00:42:46;18.80;52.60
13369;DHT22;6753;52.520;13.450;2023-04-12T00:42:58;18.80;52.60
13369;DHT22;6753;52.520;13.450;2023-04-12T00:43:09;18.80;52.50
13369;DHT22;6753;52.520;13.450;2023-04-12T00:43:28;18.80;52.50
13369;DHT22;6753;52.520;13.450;2023-04-12T00:43:39;20.20;54.60
13369;DHT22;6753;52.520;13.450;2023-04-12T00:43:50;18.80;52.80
13369;DHT22;6753;52.520;13.450;2023-04-12T00:44:01;18.80;52.80
13369;DHT22;6753;52.520;13.450;2023-04-12T00:44:11;18.80;52.80
13369;DHT22;6753;52.520;13.450;2023-04-12T00:44:23;18.80;52.70
13369;DHT22;6753;52.520;13.450;2023-04-12T00:44:34;18.80;52.60
13369;DHT22;6753;52.520;13.450;2023-04-12T00:44:45;18.80;52.70
13369;DHT22;6753;52.520;13.450;2023-04-12T00:44:56;18.80;52.60
13369;DHT22;6753;52.520;13.450;2023-04-12T00:45:07;18.80;52.60
13369;DHT22;6753;52.520;13.450;2023-04-12T00:45:18;18.80;52.50
13369;DHT22;6753;52.520;13.450;2023-04-12T00:45:30;18.80;52.40
13369;DHT22;6753;52.520;13.450;2023-04-12T00:45:41;18.80;52.40
13369;DHT22;6753;52.520;13.450;2023-04-12T00:45:54;18.80;52.60
13369;DHT22;6753;52.520;13.450;2023-04-12T00:46:06;18.80;52.80
13369;DHT22;6753;52.520;13.450;2023-04-12T00:46:17;18.80;52.80
13369;DHT22;6753;52.520;13.450;2023-04-12T00:46:28;18.80;52.70
13369;DHT22;6753;52.520;13.450;2023-04-12T00:46:39;18.80;52.70
13369;DHT22;6753;52.520;13.450;2023-04-12T00:46:51;18.80;52.70
13369;DHT22;6753;52.520;13.450;2023-04-12T00:47:02;18.80;52.70
13369;DHT22;6753;52.520;13.450;2023-04-12T00:47:14;18.80;52.70
13369;DHT22;6753;52.520;13.450;2023-04-12T00:47:25;18.80;52.80
13369;DHT22;6753;52.520;13.450;2023-04-12T00:47:39;18.80;52.80
13369;DHT22;6753;52.520;13.450;2023-04-12T00:47:53;18.80;52.60
13369;DHT22;6753;52.520;13.450;2023-04-12T00:48:05;18.80;52.60
13369;DHT22;6753;52.520;13.450;2023-04-12T00:48:16;18.80;52.70
13369;DHT22;6753;52.520;13.450;2023-04-12T00:48:29;18.80;52.60
13369;DHT22;6753;52.520;13.450;2023-04-12T00:48:40;18.80;52.60
13369;DHT22;6753;52.520;13.450;2023-04-12T00:48:52;18.80;52.60
13369;DHT22;6753;52.520;13.450;2023-04-12T00:49:04;18.80;52.60
13369;DHT22;6753;52.520;13.450;2023-04-12T00:49:15;18.90;53.40
13369;DHT22;6753;52.520;13.450;2023-04-12T00:49:28;18.80;52.60
13369;DHT22;6753;52.520;13.450;2023-04-12T00:49:40;18.80;52.50
13369;DHT22;6753;52.520;13.450;2023-04-12T00:49:51;18.80;52.50
13369;DHT22;6753;52.520;13.450;2023-04-12T00:50:03;18.80;52.50
13369;DHT22;6753;52.520;13.450;2023-04-12T00:50:15;18.80;52.60
13369;DHT22;6753;52.520;13.450;2023-04-12T00:50:26;18.90;52.60
13369;DHT22;6753;52.520;13.450;2023-04-12T00:50:36;18.90;52.80
13369;DHT22;6753;52.520;13.450;2023-04-12T00:50:51;18.80;52.80
13369;DHT22;6753;52.520;13.450;2023-04-12T00:51:06;18.90;53.00
13369;DHT22;6753;52.520;13.450;2023-04-12T00:51:16;18.80;52.80
13369;DHT22;6753;52.520;13.450;2023-04-12T00:51:32;18.90;53.00
13369;DHT22;6753;52.520;13.450;2023-04-12T00:51:43;18.90;53.00
13369;DHT22;6753;52.520;13.450;2023-04-12T00:51:55;18.90;53.10
13369;DHT22;6753;52.520;13.450;2023-04-12T00:52:07;18.80;53.10
13369;DHT22;6753;52.520;13.450;2023-04-12T00:52:19;18.80;53.00
13369;DHT22;6753;52.520;13.450;2023-04-12T00:52:31;18.90;53.10
13369;DHT22;6753;52.520;13.450;2023-04-12T00:52:44;18.90;53.10
13369;DHT22;6753;52.520;13.450;2023-04-12T00:52:54;18.90;53.10
13369;DHT22;6753;52.520;13.450;2023-04-12T00:53:08;18.80;52.90
13369;DHT22;6753;52.520;13.450;2023-04-12T00:53:22;20.10;54.70
13369;DHT22;6753;52.520;13.450;2023-04-12T00:53:33;18.90;53.00
13369;DHT22;6753;52.520;13.450;2023-04-12T00:53:45;18.80;52.90
13369;DHT22;6753;52.520;13.450;2023-04-12T00:53:55;18.80;52.90
13369;DHT22;6753;52.520;13.450;2023-04-12T00:54:07;18.90;53.00
13369;DHT22;6753;52.520;13.450;2023-04-12T00:54:18;18.90;53.20
13369;DHT22;6753;52.520;13.450;2023-04-12T00:54:29;18.80;53.20
13369;DHT22;6753;52.520;13.450;2023-04-12T00:54:42;18.90;53.30
13369;DHT22;6753;52.520;13.450;2023-04-12T00:54:54;18.90;53.30
13369;DHT22;6753;52.520;13.450;2023-04-12T00:55:06;18.90;53.40
13369;DHT22;6753;52.520;13.450;2023-04-12T00:55:17;18.80;53.20
13369;DHT22;6753;52.520;13.450;2023-04-12T00:55:28;18.90;53.30
13369;DHT22;6753;52.520;13.450;2023-04-12T00:55:39;18.90;53.30
13369;DHT22;6753;52.520;13.450;2023-04-12T00:55:51;18.80;53.10
13369;DHT22;6753;52.520;13.450;2023-04-12T00:56:03;18.90;53.10
13369;DHT22;6753;52.520;13.450;2023-04-12T00:56:14;18.80;52.80
13369;DHT22;6753;52.520;13.450;2023-04-12T00:56:26;18.90;53.00
13369;DHT22;6753;52.520;13.450;2023-04-12T00:56:38;18.90;53.10
13369;DHT22;6753;52.520;13.450;2023-04-12T00:56:50;18.90;53.10
13369;DHT22;6753;52.520;13.450;2023-04-12T00:57:01;18.90;53.40
13369;DHT22;6753;52.520;13.450;2023-04-12T00:57:12;18.90;53.40
13369;DHT22;6753;52.520;13.450;2023-04-12T00:57:23;18.90;53.50
13369;DHT22;6753;52.520;13.450;2023-04-12T00:57:35;18.90;53.40
13369;DHT22;6753;52.520;13.450;2023-04-12T00:57:46;18.90;53.50
13369;DHT22;6753;52.520;13.450;2023-04-12T00:57:58;18.90;53.40
13369;DHT22;6753;52.520;13.450;2023-04-12T00:58:08;18.90;53.30
13369;DHT22;6753;52.520;13.450;2023-04-12T00:58:22;18.90;53.30
13369;DHT22;6753;52.520;13.450;2023-04-12T00:58:33;18.90;53.20
13369;DHT22;6753;52.520;13.450;2023-04-12T00:58:44;18.80;53.00
13369;DHT22;6753;52.520;13.450;2023-04-12T00:58:56;18.80;53.00
13369;DHT22;6753;52.520;13.450;2023-04-12T00:59:06;18.90;53.10
13369;DHT22;6753;52.520;13.450;2023-04-12T00:59:18;18.90;53.00
13369;DHT22;6753;52.520;13.450;2023-04-12T00:59:29;18.90;53.00
13369;DHT22;6753;52.520;13.450;2023-04-12T00:59:40;18.90;52.90
13369;DHT22;6753;52.520;13.450;2023-04-12T00:59:50;18.90;52.90
13369;DHT22;6753;52.520;13.450;2023-04-12T01:00:01;18.90;52.90
13369;DHT22;6753;52.520;13.450;2023-04-12T01:00:14;18.90;52.90
13369;DHT22;6753;52.520;13.450;2023-04-12T01:00:26;18.80;52.80
13369;DHT22;6753;52.520;13.450;2023-04-12T01:00:37;18.90;53.10
13369;DHT22;6753;52.520;13.450;2023-04-12T01:00:48;18.80;53.00
13369;DHT22;6753;52.520;13.450;2023-04-12T01:00:59;18.90;53.10
13369;DHT22;6753;52.520;13.450;2023-04-12T01:01:10;18.90;53.00
13369;DHT22;6753;52.520;13.450;2023-04-12T01:01:22;19.70;54.40
13369;DHT22;6753;52.520;13.450;2023-04-12T01:01:32;18.90;53.90
13369;DHT22;6753;52.520;13.450;2023-04-12T01:01:44;18.90;53.50
13369;DHT22;6753;52.520;13.450;2023-04-12T01:01:55;18.90;53.60
13369;DHT22;6753;52.520;13.450;2023-04-12T01:02:06;18.80;53.50
13369;DHT22;6753;52.520;13.450;2023-04-12T01:02:17;18.90;53.60
13369;DHT22;6753;52.520;13.450;2023-04-12T01:02:28;18.80;53.40
13369;DHT22;6753;52.520;13.450;2023-04-12T01:02:41;18.80;53.40
13369;DHT22;6753;52.520;13.450;2023-04-12T01:02:59;18.90;53.60
13369;DHT22;6753;52.520;13.450;2023-04-12T01:03:11;18.90;53.50
13369;DHT22;6753;52.520;13.450;2023-04-12T01:03:23;18.80;53.60
13369;DHT22;6753;52.520;13.450;2023-04-12T01:03:37;18.90;53.90
13369;DHT22;6753;52.520;13.450;2023-04-12T01:03:54;18.90;53.90
13369;DHT22;6753;52.520;13.450;2023-04-12T01:04:10;18.80;53.80
13369;DHT22;6753;52.520;13.450;2023-04-12T01:04:23;18.90;54.10
13369;DHT22;6753;52.520;13.450;2023-04-12T01:04:35;19.70;55.30
13369;DHT22;6753;52.520;13.450;2023-04-12T01:04:47;18.90;54.00
13369;DHT22;6753;52.520;13.450;2023-04-12T01:05:01;18.90;53.80
13369;DHT22;6753;52.520;13.450;2023-04-12T01:05:12;18.80;53.80
13369;DHT22;6753;52.520;13.450;2023-04-12T01:05:24;18.80;53.80
13369;DHT22;6753;52.520;13.450;2023-04-12T01:05:55;18.80;53.70
13369;DHT22;6753;52.520;13.450;2023-04-12T01:06:12;18.90;53.70
13369;DHT22;6753;52.520;13.450;2023-04-12T01:06:36;18.80;53.40
13369;DHT22;6753;52.520;13.450;2023-04-12T01:07:01;18.80;53.40
13369;DHT22;6753;52.520;13.450;2023-04-12T01:07:20;18.80;53.40
13369;DHT22;6753;52.520;13.450;2023-04-12T01:07:39;18.80;53.30
13369;DHT22;6753;52.520;13.450;2023-04-12T01:08:04;18.90;53.30
13369;DHT22;6753;52.520;13.450;2023-04-12T01:08:22;18.80;53.20
13369;DHT22;6753;52.520;13.450;2023-04-12T01:08:42;18.90;53.30
13369;DHT22;6753;52.520;13.450;2023-04-12T01:09:02;18.90;53.40
13369;DHT22;6753;52.520;13.450;2023-04-12T01:09:26;18.80;53.20
13369;DHT22;6753;52.520;13.450;2023-04-12T01:09:47;18.90;53.40
13369;DHT22;6753;52.520;13.450;2023-04-12T01:10:06;18.80;53.30
13369;DHT22;6753;52.520;13.450;2023-04-12T01:10:26;18.90;53.40
13369;DHT22;6753;52.520;13.450;2023-04-12T01:10:45;18.80;53.20
13369;DHT22;6753;52.520;13.450;2023-04-12T01:11:04;18.90;53.60
13369;DHT22;6753;52.520;13.450;2023-04-12T01:11:25;18.80;53.50
13369;DHT22;6753;52.520;13.450;2023-04-12T01:11:43;18.90;53.60
13369;DHT22;6753;52.520;13.450;2023-04-12T01:12:01;18.80;53.60
13369;DHT22;6753;52.520;13.450;2023-04-12T01:12:24;18.90;53.80
13369;DHT22;6753;52.520;13.450;2023-04-12T01:12:46;18.90;53.80
13369;DHT22;6753;52.520;13.450;2023-04-12T01:13:04;18.90;53.90
13369;DHT22;6753;52.520;13.450;2023-04-12T01:13:25;18.90;53.90
13369;DHT22;6753;52.520;13.450;2023-04-12T01:13:40;18.90;53.90
13369;DHT22;6753;52.520;13.450;2023-04-12T01:14:02;18.90;53.80
13369;DHT22;6753;52.520;13.450;2023-04-12T01:14:20;18.90;53.80
13369;DHT22;6753;52.520;13.450;2023-04-12T01:14:41;18.90;53.90
13369;DHT22;6753;52.520;13.450;2023-04-12T01:14:57;18.90;53.90
13369;DHT22;6753;52.520;13.450;2023-04-12T01:15:12;18.90;53.80
13369;DHT22;6753;52.520;13.450;2023-04-12T01:15:25;18.90;53.80
13369;DHT22;6753;52.520;13.450;2023-04-12T01:15:42;18.90;53.90
13369;DHT22;6753;52.520;13.450;2023-04-12T01:16:01;18.90;53.80
13369;DHT22;6753;52.520;13.450;2023-04-12T01:16:18;18.80;53.60
13369;DHT22;6753;52.520;13.450;2023-04-12T01:16:35;18.90;53.80
13369;DHT22;6753;52.520;13.450;2023-04-12T01:16:51;18.90;53.80
13369;DHT22;6753;52.520;13.450;2023-04-12T01:17:04;18.90;53.90
13369;DHT22;6753;52.520;13.450;2023-04-12T01:17:20;18.90;54.10
13369;DHT22;6753;52.520;13.450;2023-04-12T01:17:36;18.90;54.00
13369;DHT22;6753;52.520;13.450;2023-04-12T01:17:51;18.90;54.00